createdAt,value
2022-08-30T00:02:06.950Z,88913.75
2022-08-30T00:04:51.621Z,88905.09
2022-08-30T00:07:36.279Z,88912.94
2022-08-30T00:10:21.088Z,88915.19
2022-08-30T00:13:05.909Z,88913.25
2022-08-30T00:15:50.681Z,88911.25
2022-08-30T00:18:35.929Z,88913.03
2022-08-30T00:21:21.177Z,88911.16
2022-08-30T00:24:06.037Z,88920.22
2022-08-30T00:26:50.882Z,88907.75
2022-08-30T00:29:35.608Z,88906.72
2022-08-30T00:32:20.390Z,88909.63
2022-08-30T00:35:05.287Z,88904.47
2022-08-30T00:37:50.146Z,88911.53
2022-08-30T00:40:34.947Z,88915.53
2022-08-30T00:43:20.094Z,88908.00
2022-08-30T00:46:05.335Z,88908.44
2022-08-30T00:48:50.257Z,88912.41
2022-08-30T00:51:34.936Z,88909.22
2022-08-30T00:54:19.713Z,88914.88
2022-08-30T00:57:04.548Z,88917.03
2022-08-30T00:59:49.321Z,88912.41
2022-08-30T01:02:34.048Z,88912.66
2022-08-30T01:05:19.329Z,88913.69
2022-08-30T01:08:04.143Z,88912.38
2022-08-30T01:10:48.907Z,88911.69
2022-08-30T01:13:33.678Z,88908.16
2022-08-30T01:16:18.336Z,88903.13
2022-08-30T01:19:03.588Z,88899.22
2022-08-30T01:21:50.221Z,88904.84
2022-08-30T01:24:34.941Z,88894.88
2022-08-30T01:27:19.824Z,88903.44
2022-08-30T01:30:04.594Z,88904.41
2022-08-30T01:32:49.481Z,88897.50
2022-08-30T01:35:34.075Z,88890.38
2022-08-30T01:38:18.773Z,88892.31
2022-08-30T01:41:03.676Z,88890.44
2022-08-30T01:43:48.777Z,88892.38
2022-08-30T01:46:33.448Z,88892.25
2022-08-30T01:49:24.877Z,88892.97
2022-08-30T01:52:12.941Z,88888.22
2022-08-30T01:54:57.796Z,88886.81
2022-08-30T01:57:42.521Z,88894.09
2022-08-30T02:00:27.385Z,88893.78
2022-08-30T02:03:11.948Z,88890.94
2022-08-30T02:05:56.674Z,88895.34
2022-08-30T02:08:41.362Z,88889.16
2022-08-30T02:11:26.164Z,88897.38
2022-08-30T02:14:10.921Z,88897.63
2022-08-30T02:16:55.801Z,88894.41
2022-08-30T02:19:40.966Z,88899.47
2022-08-30T02:22:25.700Z,88889.66
2022-08-30T02:25:18.642Z,88893.81
2022-08-30T02:28:05.883Z,88892.47
2022-08-30T02:30:51.104Z,88896.63
2022-08-30T02:33:35.904Z,88895.00
2022-08-30T02:36:25.248Z,88899.59
2022-08-30T02:39:09.938Z,88904.66
2022-08-30T02:41:54.784Z,88902.53
2022-08-30T02:44:39.548Z,88901.63
2022-08-30T02:47:24.345Z,88900.16
2022-08-30T02:50:09.288Z,88895.63
2022-08-30T02:52:54.306Z,88899.94
2022-08-30T02:55:40.330Z,88894.56
2022-08-30T02:58:25.161Z,88901.47
2022-08-30T03:01:09.966Z,88893.34
2022-08-30T03:03:54.714Z,88880.31
2022-08-30T03:06:39.453Z,88884.81
2022-08-30T03:09:24.340Z,88881.97
2022-08-30T03:12:09.014Z,88890.59
2022-08-30T03:14:53.850Z,88879.19
2022-08-30T03:17:38.605Z,88884.50
2022-08-30T03:20:23.447Z,88884.25
2022-08-30T03:23:08.220Z,88882.19
2022-08-30T03:25:53.009Z,88879.84
2022-08-30T03:28:37.620Z,88883.81
2022-08-30T03:31:22.490Z,88880.78
2022-08-30T03:34:07.122Z,88878.56
2022-08-30T03:36:51.941Z,88881.84
2022-08-30T03:39:36.710Z,88887.84
2022-08-30T03:42:21.534Z,88879.69
2022-08-30T03:45:08.848Z,88875.97
2022-08-30T03:47:54.460Z,88878.72
2022-08-30T03:50:39.247Z,88884.25
2022-08-30T03:53:25.734Z,88884.75
2022-08-30T03:56:12.076Z,88885.44
2022-08-30T03:58:56.890Z,88884.84
2022-08-30T04:01:41.490Z,88897.38
2022-08-30T04:04:26.364Z,88893.69
2022-08-30T04:07:11.035Z,88892.44
2022-08-30T04:09:55.852Z,88898.72
2022-08-30T04:12:40.755Z,88902.06
2022-08-30T04:15:25.357Z,88899.09
2022-08-30T04:18:10.180Z,88903.88
2022-08-30T04:20:55.105Z,88899.56
2022-08-30T04:23:39.901Z,88900.69
2022-08-30T04:26:29.214Z,88905.91
2022-08-30T04:29:14.485Z,88905.16
2022-08-30T04:31:59.316Z,88905.44
2022-08-30T04:34:44.584Z,88902.63
2022-08-30T04:37:29.343Z,88907.00
2022-08-30T04:40:14.202Z,88905.41
2022-08-30T04:42:59.411Z,88903.47
2022-08-30T04:45:44.280Z,88904.59
2022-08-30T04:48:28.991Z,88901.78
2022-08-30T04:51:13.815Z,88897.63
2022-08-30T04:53:58.552Z,88902.44
2022-08-30T04:56:43.402Z,88896.44
2022-08-30T04:59:28.233Z,88899.25
2022-08-30T05:02:14.843Z,88896.59
2022-08-30T05:04:59.696Z,88903.06
2022-08-30T05:07:44.387Z,88898.22
2022-08-30T05:10:29.162Z,88903.19
2022-08-30T05:13:14.023Z,88906.63
2022-08-30T05:15:58.862Z,88905.84
2022-08-30T05:18:43.560Z,88909.56
2022-08-30T05:21:28.287Z,88908.97
2022-08-30T05:24:12.887Z,88903.41
2022-08-30T05:26:57.758Z,88906.09
2022-08-30T05:29:42.360Z,88906.91
2022-08-30T05:32:27.099Z,88922.06
2022-08-30T05:35:11.865Z,88911.16
2022-08-30T05:37:56.681Z,88911.16
2022-08-30T05:40:41.509Z,88901.91
2022-08-30T05:43:26.951Z,88904.06
2022-08-30T05:46:15.258Z,88899.88
2022-08-30T05:49:00.365Z,88903.25
2022-08-30T05:51:45.087Z,88911.34
2022-08-30T05:54:29.698Z,88904.63
2022-08-30T05:57:14.487Z,88901.97
2022-08-30T05:59:59.212Z,88906.50
2022-08-30T06:02:44.021Z,88903.38
2022-08-30T06:05:28.747Z,88906.94
2022-08-30T06:08:18.590Z,88911.06
2022-08-30T06:11:03.629Z,88903.38
2022-08-30T06:13:48.437Z,88903.31
2022-08-30T06:16:33.175Z,88905.59
2022-08-30T06:19:18.588Z,88902.03
2022-08-30T06:22:03.299Z,88908.16
2022-08-30T06:25:03.176Z,88894.13
2022-08-30T06:27:48.060Z,88897.31
2022-08-30T06:30:32.816Z,88901.63
2022-08-30T06:33:17.533Z,88895.56
2022-08-30T06:36:05.791Z,88895.53
2022-08-30T06:38:51.183Z,88894.50
2022-08-30T06:41:35.861Z,88892.19
2022-08-30T06:44:20.534Z,88901.63
2022-08-30T06:47:05.278Z,88898.81
2022-08-30T06:49:50.141Z,88897.63
2022-08-30T06:52:35.427Z,88897.25
2022-08-30T06:55:20.829Z,88896.91
2022-08-30T06:58:05.770Z,88897.75
2022-08-30T07:00:50.512Z,88900.88
2022-08-30T07:03:35.377Z,88906.03
2022-08-30T07:06:19.973Z,88899.41
2022-08-30T07:09:04.779Z,88900.88
2022-08-30T07:11:49.471Z,88904.47
2022-08-30T07:14:34.246Z,88905.22
2022-08-30T07:17:19.016Z,88903.88
2022-08-30T07:20:03.809Z,88900.72
2022-08-30T07:22:48.700Z,88904.59
2022-08-30T07:25:33.463Z,88903.00
2022-08-30T07:28:18.218Z,88900.25
2022-08-30T07:31:03.110Z,88904.75
2022-08-30T07:33:47.992Z,88900.63
2022-08-30T07:36:32.764Z,88896.91
2022-08-30T07:39:17.578Z,88901.22
2022-08-30T07:42:02.266Z,88898.03
2022-08-30T07:44:48.514Z,88890.94
2022-08-30T07:47:33.392Z,88891.34
2022-08-30T07:50:18.004Z,88891.38
2022-08-30T07:53:03.999Z,88886.94
2022-08-30T07:55:50.491Z,88896.53
2022-08-30T07:58:35.291Z,88890.13
2022-08-30T08:01:20.119Z,88893.19
2022-08-30T08:04:04.920Z,88887.25
2022-08-30T08:06:49.675Z,88889.22
2022-08-30T08:09:34.445Z,88885.44
2022-08-30T08:12:19.206Z,88885.63
2022-08-30T08:15:06.705Z,88879.78
2022-08-30T08:17:53.727Z,88881.66
2022-08-30T08:20:38.626Z,88875.69
2022-08-30T08:23:23.382Z,88871.88
2022-08-30T08:26:08.255Z,88876.63
2022-08-30T08:28:52.938Z,88878.16
2022-08-30T08:31:37.847Z,88875.97
2022-08-30T08:34:22.993Z,88872.34
2022-08-30T08:37:07.873Z,88875.81
2022-08-30T08:39:52.574Z,88868.03
2022-08-30T08:42:37.395Z,88861.34
2022-08-30T08:45:22.200Z,88863.50
2022-08-30T08:48:09.452Z,88863.75
2022-08-30T08:50:59.417Z,88860.97
2022-08-30T08:53:46.939Z,88860.97
2022-08-30T08:56:31.976Z,88857.81
2022-08-30T08:59:16.813Z,88862.66
2022-08-30T09:02:01.762Z,88854.09
2022-08-30T09:04:47.091Z,88854.34
2022-08-30T09:07:32.169Z,88850.47
2022-08-30T09:10:22.952Z,88847.25
2022-08-30T09:13:15.398Z,88845.28
2022-08-30T09:16:04.020Z,88851.09
2022-08-30T09:18:52.689Z,88853.09
2022-08-30T09:21:39.441Z,88835.06
2022-08-30T09:24:26.107Z,88838.47
2022-08-30T09:27:11.045Z,88840.03
2022-08-30T09:29:55.855Z,88835.81
2022-08-30T09:32:41.654Z,88826.94
2022-08-30T09:35:26.468Z,88829.16
2022-08-30T09:38:11.533Z,88818.41
2022-08-30T09:40:58.325Z,88817.47
2022-08-30T09:43:43.529Z,88817.78
2022-08-30T09:46:28.172Z,88815.16
2022-08-30T09:49:13.153Z,88818.81
2022-08-30T09:51:57.835Z,88810.19
2022-08-30T09:54:42.488Z,88807.22
2022-08-30T09:57:33.822Z,88819.09
2022-08-30T10:00:19.050Z,88816.00
2022-08-30T10:03:03.873Z,88813.31
2022-08-30T10:05:48.662Z,88815.38
2022-08-30T10:08:33.303Z,88810.38
2022-08-30T10:11:18.285Z,88809.44
2022-08-30T10:14:02.976Z,88805.47
2022-08-30T10:16:47.915Z,88802.38
2022-08-30T10:19:35.217Z,88806.16
2022-08-30T10:22:20.115Z,88803.00
2022-08-30T10:25:04.772Z,88795.22
2022-08-30T10:27:50.535Z,88800.16
2022-08-30T10:30:35.826Z,88797.75
2022-08-30T10:33:20.536Z,88795.59
2022-08-30T10:36:06.351Z,88795.91
2022-08-30T10:38:55.837Z,88794.63
2022-08-30T10:41:40.490Z,88794.44
2022-08-30T10:44:25.429Z,88800.97
2022-08-30T10:47:10.088Z,88791.06
2022-08-30T10:49:54.890Z,88798.72
2022-08-30T10:52:39.563Z,88799.47
2022-08-30T10:55:25.948Z,88792.63
2022-08-30T10:58:10.873Z,88782.44
2022-08-30T11:00:55.644Z,88781.41
2022-08-30T11:03:40.541Z,88775.66
2022-08-30T11:06:25.241Z,88782.09
2022-08-30T11:09:10.070Z,88772.16
2022-08-30T11:11:54.754Z,88774.78
2022-08-30T11:14:39.876Z,88776.75
2022-08-30T11:17:28.050Z,88776.22
2022-08-30T11:20:12.798Z,88769.28
2022-08-30T11:22:57.670Z,88759.06
2022-08-30T11:25:42.918Z,88762.44
2022-08-30T11:28:27.685Z,88765.56
2022-08-30T11:31:12.491Z,88766.34
2022-08-30T11:34:00.979Z,88758.69
2022-08-30T11:36:46.394Z,88760.75
2022-08-30T11:39:31.906Z,88757.31
2022-08-30T11:42:17.262Z,88757.22
2022-08-30T11:45:02.004Z,88758.06
2022-08-30T11:47:50.242Z,88753.47
2022-08-30T11:50:34.987Z,88751.72
2022-08-30T11:53:19.639Z,88748.59
2022-08-30T11:56:04.494Z,88749.28
2022-08-30T11:58:49.221Z,88748.66
2022-08-30T12:01:50.927Z,88747.50
2022-08-30T12:04:37.055Z,88743.44
2022-08-30T12:07:21.646Z,88752.00
2022-08-30T12:10:06.536Z,88749.16
2022-08-30T12:12:51.756Z,88745.63
2022-08-30T12:15:37.093Z,88746.41
2022-08-30T12:18:21.847Z,88740.94
2022-08-30T12:21:07.831Z,88741.28
2022-08-30T12:23:53.050Z,88743.53
2022-08-30T12:26:38.286Z,88742.63
2022-08-30T12:29:23.125Z,88744.00
2022-08-30T12:32:09.363Z,88742.03
2022-08-30T12:34:54.527Z,88741.78
2022-08-30T12:37:42.092Z,88740.91
2022-08-30T12:40:27.009Z,88748.06
2022-08-30T12:43:12.330Z,88748.00
2022-08-30T12:45:56.983Z,88735.06
2022-08-30T12:48:45.617Z,88743.06
2022-08-30T12:51:30.405Z,88751.34
2022-08-30T12:54:15.087Z,88760.63
2022-08-30T12:57:13.953Z,88766.78
2022-08-30T13:00:05.031Z,88760.44
2022-08-30T13:02:51.272Z,88753.56
2022-08-30T13:05:42.955Z,88740.75
2022-08-30T13:08:30.491Z,88747.22
2022-08-30T13:11:15.336Z,88739.47
2022-08-30T13:14:00.085Z,88736.78
2022-08-30T13:16:45.546Z,88730.50
2022-08-30T13:19:30.649Z,88727.56
2022-08-30T13:22:19.809Z,88719.03
2022-08-30T13:25:05.358Z,88725.94
2022-08-30T13:27:50.305Z,88717.50
2022-08-30T13:30:35.200Z,88722.84
2022-08-30T13:33:19.884Z,88729.22
2022-08-30T13:36:05.175Z,88733.75
2022-08-30T13:38:49.921Z,88728.13
2022-08-30T13:41:34.824Z,88725.69
2022-08-30T13:44:20.128Z,88723.22
2022-08-30T13:50:10.002Z,88708.34
2022-08-30T13:52:54.616Z,88704.66
2022-08-30T13:55:39.433Z,88704.81
2022-08-30T13:58:26.004Z,88705.31
2022-08-30T14:01:13.780Z,88701.75
2022-08-30T14:04:13.905Z,88706.00
2022-08-30T14:07:16.975Z,88699.50
2022-08-30T14:13:10.708Z,88687.03
2022-08-30T14:19:03.366Z,88674.44
2022-08-30T14:21:49.164Z,88677.03
2022-08-30T14:24:34.257Z,88659.44
2022-08-30T14:27:19.567Z,88655.00
2022-08-30T14:30:06.926Z,88650.28
2022-08-30T14:32:51.615Z,88649.66
2022-08-30T14:35:36.321Z,88657.84
2022-08-30T14:38:21.155Z,88643.84
2022-08-30T14:41:05.990Z,88643.47
2022-08-30T14:43:50.694Z,88637.19
2022-08-30T14:46:35.706Z,88640.56
2022-08-30T14:49:20.800Z,88635.22
2022-08-30T14:52:06.089Z,88624.34
2022-08-30T14:54:55.401Z,88613.69
2022-08-30T14:57:42.595Z,88619.06
2022-08-30T15:00:27.322Z,88612.78
2022-08-30T15:03:11.876Z,88609.19
2022-08-30T15:05:56.760Z,88609.97
2022-08-30T15:08:41.551Z,88602.31
2022-08-30T15:11:26.233Z,88600.72
2022-08-30T15:14:15.839Z,88600.88
2022-08-30T15:17:01.375Z,88589.59
2022-08-30T15:19:46.639Z,88588.78
2022-08-30T15:22:32.928Z,88593.00
2022-08-30T15:25:19.723Z,88592.56
2022-08-30T15:28:04.397Z,88595.47
2022-08-30T15:30:49.051Z,88584.84
2022-08-30T15:33:33.801Z,88586.84
2022-08-30T15:36:18.559Z,88592.88
2022-08-30T15:39:03.237Z,88590.38
2022-08-30T15:41:55.706Z,88579.69
2022-08-30T15:44:43.442Z,88570.88
2022-08-30T15:47:28.574Z,88568.22
2022-08-30T15:50:13.419Z,88561.63
2022-08-30T15:52:58.029Z,88568.53
2022-08-30T15:55:42.708Z,88565.56
2022-08-30T15:58:27.469Z,88568.78
2022-08-30T16:01:12.355Z,88568.56
2022-08-30T16:03:57.520Z,88577.28
2022-08-30T16:06:42.195Z,88571.00
2022-08-30T16:09:30.219Z,88570.59
2022-08-30T16:12:23.321Z,88581.50
2022-08-30T16:15:08.680Z,88584.59
2022-08-30T16:17:53.327Z,88586.59
2022-08-30T16:20:38.108Z,88597.84
2022-08-30T16:23:22.746Z,88594.44
2022-08-30T16:26:09.602Z,88599.06
2022-08-30T16:28:55.039Z,88610.63
2022-08-30T16:31:39.913Z,88611.72
2022-08-30T16:34:25.253Z,88623.75
2022-08-30T16:37:10.915Z,88615.09
2022-08-30T16:39:55.761Z,88609.00
2022-08-30T16:42:40.938Z,88620.53
2022-08-30T16:45:28.595Z,88619.25
2022-08-30T16:48:16.361Z,88626.34
2022-08-30T16:51:01.703Z,88635.72
2022-08-30T16:53:46.480Z,88641.22
2022-08-30T16:56:31.334Z,88642.63
2022-08-30T16:59:16.092Z,88636.69
2022-08-30T17:02:01.074Z,88634.84
2022-08-30T17:04:47.849Z,88634.53
2022-08-30T17:07:37.431Z,88637.00
2022-08-30T17:10:23.318Z,88629.19
2022-08-30T17:13:10.835Z,88631.28
2022-08-30T17:15:56.058Z,88633.84
2022-08-30T17:18:40.766Z,88625.88
2022-08-30T17:21:26.981Z,88627.16
2022-08-30T17:24:11.818Z,88625.66
2022-08-30T17:26:56.561Z,88635.41
2022-08-30T17:29:43.210Z,88639.94
2022-08-30T17:32:28.079Z,88632.94
2022-08-30T17:35:12.754Z,88637.69
2022-08-30T17:37:57.558Z,88642.91
2022-08-30T17:40:42.304Z,88649.41
2022-08-30T17:43:27.074Z,88661.69
2022-08-30T17:46:13.382Z,88662.56
2022-08-30T17:49:01.171Z,88665.97
2022-08-30T17:51:47.609Z,88664.94
2022-08-30T17:54:32.890Z,88670.56
2022-08-30T17:57:17.805Z,88672.59
2022-08-30T18:00:03.038Z,88672.06
2022-08-30T18:02:48.738Z,88679.09
2022-08-30T18:05:33.936Z,88679.88
2022-08-30T18:08:23.226Z,88679.78
2022-08-30T18:11:09.529Z,88683.81
2022-08-30T18:13:54.834Z,88685.69
2022-08-30T18:16:39.545Z,88686.28
2022-08-30T18:19:46.157Z,88684.09
2022-08-30T18:22:31.546Z,88689.41
2022-08-30T18:25:16.105Z,88691.28
2022-08-30T18:28:01.408Z,88689.22
2022-08-30T18:30:47.704Z,88693.56
2022-08-30T18:33:32.550Z,88698.31
2022-08-30T18:36:18.823Z,88696.84
2022-08-30T18:39:03.524Z,88698.03
2022-08-30T18:41:48.885Z,88689.28
2022-08-30T18:44:34.151Z,88700.22
2022-08-30T18:47:18.888Z,88704.72
2022-08-30T18:50:08.249Z,88709.00
2022-08-30T18:52:53.028Z,88705.06
2022-08-30T18:55:41.458Z,88706.31
2022-08-30T18:58:26.257Z,88713.47
2022-08-30T19:01:11.057Z,88714.75
2022-08-30T19:03:57.815Z,88724.19
2022-08-30T19:06:42.627Z,88726.97
2022-08-30T19:09:27.919Z,88726.81
2022-08-30T19:12:12.849Z,88721.56
2022-08-30T19:14:58.174Z,88720.97
2022-08-30T19:17:43.569Z,88719.94
2022-08-30T19:20:28.214Z,88722.13
2022-08-30T19:23:12.880Z,88723.50
2022-08-30T19:25:57.709Z,88732.50
2022-08-30T19:28:43.156Z,88729.84
2022-08-30T19:31:27.907Z,88732.16
2022-08-30T19:34:12.848Z,88736.22
2022-08-30T19:36:57.768Z,88728.41
2022-08-30T19:39:42.506Z,88739.66
2022-08-30T19:42:27.313Z,88735.38
2022-08-30T19:45:11.973Z,88736.44
2022-08-30T19:47:57.362Z,88733.03
2022-08-30T19:50:42.069Z,88725.69
2022-08-30T19:53:26.927Z,88731.38
2022-08-30T19:56:11.656Z,88731.50
2022-08-30T19:58:56.465Z,88734.53
2022-08-30T20:01:41.297Z,88738.66
2022-08-30T20:04:26.490Z,88734.88
2022-08-30T20:07:11.287Z,88733.31
2022-08-30T20:09:55.918Z,88748.53
2022-08-30T20:12:45.037Z,88753.00
2022-08-30T20:15:31.087Z,88748.53
2022-08-30T20:18:17.274Z,88755.53
2022-08-30T20:21:02.664Z,88753.50
2022-08-30T20:23:47.859Z,88763.88
2022-08-30T20:26:33.796Z,88775.28
2022-08-30T20:29:19.562Z,88769.28
2022-08-30T20:32:04.326Z,88774.66
2022-08-30T20:34:49.064Z,88781.06
2022-08-30T20:37:33.901Z,88778.09
2022-08-30T20:40:18.677Z,88779.63
2022-08-30T20:43:03.531Z,88783.16
2022-08-30T20:45:48.250Z,88780.41
2022-08-30T20:48:33.531Z,88778.41
2022-08-30T20:51:18.149Z,88774.66
2022-08-30T20:54:03.102Z,88771.16
2022-08-30T20:56:47.791Z,88766.88
2022-08-30T20:59:32.618Z,88757.38
2022-08-30T21:02:17.566Z,88759.63
2022-08-30T21:05:02.284Z,88758.84
2022-08-30T21:07:47.081Z,88757.81
2022-08-30T21:10:31.865Z,88753.81
2022-08-30T21:13:16.570Z,88751.16
2022-08-30T21:16:03.286Z,88753.97
2022-08-30T21:18:48.715Z,88756.44
2022-08-30T21:21:33.426Z,88752.25
2022-08-30T21:24:18.132Z,88762.72
2022-08-30T21:27:02.879Z,88760.34
2022-08-30T21:29:47.764Z,88754.38
2022-08-30T21:32:32.600Z,88758.84
2022-08-30T21:35:17.406Z,88763.00
2022-08-30T21:38:02.301Z,88764.69
2022-08-30T21:40:47.154Z,88765.25
2022-08-30T21:43:31.998Z,88762.47
2022-08-30T21:46:16.883Z,88763.31
2022-08-30T21:49:01.639Z,88759.97
2022-08-30T21:51:46.303Z,88761.91
2022-08-30T21:54:31.422Z,88754.28
2022-08-30T21:57:16.494Z,88758.72
2022-08-30T22:00:01.390Z,88756.88
2022-08-30T22:02:46.325Z,88762.75
2022-08-30T22:05:34.095Z,88757.19
2022-08-30T22:08:18.871Z,88755.78
2022-08-30T22:11:03.698Z,88760.97
2022-08-30T22:13:48.511Z,88767.34
2022-08-30T22:16:33.387Z,88765.28
2022-08-30T22:19:22.902Z,88767.50
2022-08-30T22:22:08.535Z,88767.63
2022-08-30T22:24:53.381Z,88774.56
2022-08-30T22:27:38.236Z,88778.59
2022-08-30T22:30:23.030Z,88771.41
2022-08-30T22:33:07.839Z,88773.06
2022-08-30T22:35:52.735Z,88769.88
2022-08-30T22:38:37.534Z,88764.31
2022-08-30T22:41:25.720Z,88757.22
2022-08-30T22:44:16.724Z,88757.78
2022-08-30T22:47:01.466Z,88758.88
2022-08-30T22:49:46.255Z,88760.97
2022-08-30T22:52:31.073Z,88752.63
2022-08-30T22:55:15.860Z,88745.94
2022-08-30T22:58:00.705Z,88752.34
2022-08-30T23:00:48.096Z,88749.00
2022-08-30T23:03:40.236Z,88754.03
2022-08-30T23:06:25.181Z,88749.00
2022-08-30T23:09:11.389Z,88744.75
2022-08-30T23:11:56.644Z,88747.59
2022-08-30T23:14:41.578Z,88748.41
2022-08-30T23:17:26.232Z,88743.84
2022-08-30T23:20:16.004Z,88749.56
2022-08-30T23:23:00.918Z,88747.06
2022-08-30T23:25:45.682Z,88743.50
2022-08-30T23:28:31.132Z,88748.09
2022-08-30T23:31:15.962Z,88757.81
2022-08-30T23:34:00.696Z,88756.72
2022-08-30T23:36:45.380Z,88760.16
2022-08-30T23:39:30.296Z,88765.56
2022-08-30T23:42:15.265Z,88760.97
2022-08-30T23:45:00.117Z,88760.00
2022-08-30T23:47:44.901Z,88761.53
2022-08-30T23:50:29.588Z,88761.69
2022-08-30T23:53:14.488Z,88762.38
2022-08-30T23:55:59.565Z,88757.53
2022-08-30T23:58:44.329Z,88757.53
